createdAt,value
2019-02-08T00:00:00.490Z,14.79
2019-02-08T00:02:31.964Z,14.79
2019-02-08T00:05:03.795Z,14.78
2019-02-08T00:07:35.430Z,14.67
2019-02-08T00:10:08.023Z,14.63
2019-02-08T00:12:39.682Z,14.67
2019-02-08T00:15:12.388Z,14.67
2019-02-08T00:17:44.218Z,14.72
2019-02-08T00:20:16.231Z,14.74
2019-02-08T00:22:47.989Z,14.50
2019-02-08T00:25:19.907Z,14.32
2019-02-08T00:27:53.093Z,14.32
2019-02-08T00:30:25.206Z,14.25
2019-02-08T00:32:57.050Z,14.29
2019-02-08T00:35:29.202Z,14.29
2019-02-08T00:38:00.907Z,14.30
2019-02-08T00:40:32.530Z,14.28
2019-02-08T00:43:05.469Z,14.38
2019-02-08T00:45:36.902Z,14.45
2019-02-08T00:48:08.780Z,14.45
2019-02-08T00:50:40.427Z,14.31
2019-02-08T00:53:13.096Z,14.31
2019-02-08T00:55:44.922Z,14.32
2019-02-08T00:58:16.655Z,14.39
2019-02-08T01:00:48.372Z,14.39
2019-02-08T01:03:20.976Z,14.01
2019-02-08T01:05:52.218Z,14.01
2019-02-08T01:08:26.024Z,14.00
2019-02-08T01:10:57.299Z,14.25
2019-02-08T01:13:28.613Z,14.16
2019-02-08T01:16:00.098Z,14.10
2019-02-08T01:18:31.420Z,14.10
2019-02-08T01:21:02.763Z,14.04
2019-02-08T01:23:41.065Z,14.04
2019-02-08T01:26:07.892Z,13.99
2019-02-08T01:28:39.736Z,14.11
2019-02-08T01:31:11.698Z,14.23
2019-02-08T01:33:43.115Z,14.23
2019-02-08T01:36:15.926Z,13.90
2019-02-08T01:38:47.429Z,13.92
2019-02-08T01:41:18.786Z,13.92
2019-02-08T01:43:51.246Z,14.04
2019-02-08T01:46:22.662Z,13.84
2019-02-08T01:48:54.027Z,13.84
2019-02-08T01:51:25.410Z,13.74
2019-02-08T01:53:59.089Z,15.98
2019-02-08T01:56:30.488Z,16.76
2019-02-08T01:59:01.848Z,16.98
2019-02-08T02:01:33.622Z,16.98
2019-02-08T02:04:05.229Z,17.09
2019-02-08T02:06:36.598Z,17.11
2019-02-08T02:09:09.850Z,17.15
2019-02-08T02:11:41.751Z,17.14
2019-02-08T02:14:13.892Z,17.05
2019-02-08T02:16:45.566Z,17.05
2019-02-08T02:19:17.184Z,16.56
2019-02-08T02:21:48.515Z,16.51
2019-02-08T02:24:20.312Z,16.51
2019-02-08T02:26:51.620Z,16.38
2019-02-08T02:29:24.901Z,16.64
2019-02-08T02:31:56.430Z,16.75
2019-02-08T02:34:28.128Z,16.69
2019-02-08T02:36:59.470Z,16.60
2019-02-08T02:39:31.001Z,16.63
2019-02-08T02:42:02.385Z,16.57
2019-02-08T02:44:34.102Z,16.63
2019-02-08T02:47:05.388Z,16.72
2019-02-08T02:49:37.306Z,16.72
2019-02-08T02:52:08.471Z,16.77
2019-02-08T02:54:41.190Z,16.76
2019-02-08T02:57:12.613Z,16.66
2019-02-08T02:59:44.059Z,16.73
2019-02-08T03:02:15.437Z,16.83
2019-02-08T03:04:46.862Z,16.83
2019-02-08T03:07:18.558Z,16.99
2019-02-08T03:09:51.790Z,16.35
2019-02-08T03:12:23.646Z,16.82
2019-02-08T03:14:56.123Z,16.87
2019-02-08T03:17:27.802Z,16.92
2019-02-08T03:19:58.907Z,17.02
2019-02-08T03:22:30.188Z,16.99
2019-02-08T03:25:01.306Z,17.01
2019-02-08T03:27:33.744Z,17.01
2019-02-08T03:30:07.045Z,16.89
2019-02-08T03:32:38.301Z,16.89
2019-02-08T03:35:12.460Z,16.97
2019-02-08T03:37:43.780Z,17.04
2019-02-08T03:40:18.522Z,16.67
2019-02-08T03:42:49.769Z,17.07
2019-02-08T03:45:21.974Z,17.04
2019-02-08T03:47:53.130Z,17.07
2019-02-08T03:50:25.261Z,17.07
2019-02-08T03:52:56.768Z,17.13
2019-02-08T03:55:28.449Z,17.13
2019-02-08T03:57:59.817Z,17.13
2019-02-08T04:00:34.890Z,17.26
2019-02-08T04:03:06.389Z,17.27
2019-02-08T04:05:38.200Z,17.34
2019-02-08T04:08:09.548Z,17.34
2019-02-08T04:10:41.244Z,17.44
2019-02-08T04:13:12.649Z,17.52
2019-02-08T04:15:44.660Z,17.57
2019-02-08T04:18:15.916Z,17.17
2019-02-08T04:20:47.298Z,17.17
2019-02-08T04:23:18.908Z,17.45
2019-02-08T04:25:50.805Z,17.43
2019-02-08T04:28:22.541Z,17.61
2019-02-08T04:30:53.858Z,17.61
2019-02-08T04:33:25.362Z,17.51
2019-02-08T04:35:57.047Z,17.48
2019-02-08T04:38:28.646Z,17.48
2019-02-08T04:41:00.126Z,17.61
2019-02-08T04:43:31.421Z,17.61
2019-02-08T04:46:02.957Z,17.56
2019-02-08T04:48:34.112Z,17.63
2019-02-08T04:51:05.655Z,17.66
2019-02-08T04:53:37.378Z,17.66
2019-02-08T04:56:08.797Z,17.79
2019-02-08T04:58:40.352Z,17.79
2019-02-08T05:01:11.712Z,17.84
2019-02-08T05:03:43.004Z,17.93
2019-02-08T05:06:14.190Z,17.99
2019-02-08T05:08:45.352Z,17.99
2019-02-08T05:11:16.679Z,18.11
2019-02-08T05:13:48.206Z,17.94
2019-02-08T05:16:24.314Z,18.01
2019-02-08T05:18:55.621Z,17.95
2019-02-08T05:21:27.081Z,17.95
2019-02-08T05:23:59.543Z,18.05
2019-02-08T05:26:31.029Z,18.05
2019-02-08T05:29:02.462Z,18.51
2019-02-08T05:31:33.866Z,18.61
2019-02-08T05:34:05.339Z,18.60
2019-02-08T05:36:37.136Z,18.60
2019-02-08T05:39:11.367Z,18.48
2019-02-08T05:41:42.705Z,18.35
2019-02-08T05:44:14.337Z,18.57
2019-02-08T05:46:45.637Z,18.65
2019-02-08T05:49:16.899Z,18.74
2019-02-08T05:51:48.605Z,18.74
2019-02-08T05:54:19.921Z,18.69
2019-02-08T05:56:51.237Z,18.69
2019-02-08T05:59:22.426Z,18.81
2019-02-08T06:01:53.831Z,19.08
2019-02-08T06:04:25.415Z,19.08
2019-02-08T06:06:56.915Z,19.17
2019-02-08T06:09:28.650Z,19.17
2019-02-08T06:12:00.482Z,19.23
2019-02-08T06:14:32.786Z,19.33
2019-02-08T06:17:05.131Z,19.52
2019-02-08T06:19:36.798Z,19.46
2019-02-08T06:22:08.837Z,19.19
2019-02-08T06:24:40.057Z,19.19
2019-02-08T06:27:11.540Z,19.59
2019-02-08T06:29:42.761Z,19.59
2019-02-08T06:32:14.110Z,19.83
2019-02-08T06:34:45.488Z,19.38
2019-02-08T06:37:16.802Z,19.38
2019-02-08T06:39:49.307Z,19.82
2019-02-08T06:42:20.662Z,19.87
2019-02-08T06:44:52.171Z,20.05
2019-02-08T06:47:23.624Z,20.05
2019-02-08T06:49:54.967Z,19.80
2019-02-08T06:52:27.483Z,19.80
2019-02-08T06:54:58.852Z,19.97
2019-02-08T06:57:41.644Z,19.97
2019-02-08T07:00:37.982Z,20.20
2019-02-08T07:03:33.720Z,20.23
2019-02-08T07:06:38.835Z,20.24
2019-02-08T07:09:34.149Z,20.02
2019-02-08T07:12:36.741Z,20.02
2019-02-08T07:15:23.088Z,19.76
2019-02-08T07:18:01.660Z,19.76
2019-02-08T07:20:51.477Z,20.04
2019-02-08T07:23:33.875Z,20.08
2019-02-08T07:26:23.607Z,20.18
2019-02-08T07:29:16.503Z,20.18
2019-02-08T07:32:05.919Z,20.69
2019-02-08T07:34:47.521Z,20.14
2019-02-08T07:37:36.021Z,20.00
2019-02-08T07:40:41.316Z,20.39
2019-02-08T07:43:32.564Z,20.39
2019-02-08T07:46:31.316Z,20.19
2019-02-08T07:49:22.254Z,20.19
2019-02-08T07:52:15.991Z,20.21
2019-02-08T07:55:04.963Z,20.56
2019-02-08T07:57:54.840Z,20.51
2019-02-08T08:00:41.395Z,20.44
2019-02-08T08:03:25.487Z,20.49
2019-02-08T08:06:32.983Z,20.48
2019-02-08T08:09:19.073Z,20.48
2019-02-08T08:12:08.359Z,20.53
2019-02-08T08:15:02.829Z,20.53
2019-02-08T08:17:48.096Z,20.35
2019-02-08T08:20:48.538Z,20.85
2019-02-08T08:23:40.062Z,20.85
2019-02-08T08:26:28.504Z,20.85
2019-02-08T08:29:37.229Z,20.67
2019-02-08T08:32:31.519Z,20.49
2019-02-08T08:35:47.603Z,20.49
2019-02-08T08:38:57.462Z,20.90
2019-02-08T08:42:04.220Z,20.90
2019-02-08T08:45:20.414Z,20.55
2019-02-08T08:48:14.922Z,20.48
2019-02-08T08:51:24.329Z,20.59
2019-02-08T08:54:39.439Z,20.59
2019-02-08T08:57:45.464Z,20.80
2019-02-08T09:01:15.470Z,20.63
2019-02-08T09:04:15.667Z,20.64
2019-02-08T09:07:32.402Z,20.63
2019-02-08T09:10:27.817Z,20.63
2019-02-08T09:13:55.142Z,20.67
2019-02-08T09:17:16.033Z,20.67
2019-02-08T09:20:49.329Z,20.61
2019-02-08T09:24:01.137Z,20.62
2019-02-08T09:27:16.895Z,20.81
2019-02-08T09:30:39.488Z,20.59
2019-02-08T09:33:36.625Z,20.59
2019-02-08T09:36:37.061Z,20.80
2019-02-08T09:39:50.198Z,20.77
2019-02-08T09:43:12.850Z,20.62
2019-02-08T09:46:22.163Z,20.62
2019-02-08T09:50:01.646Z,20.88
2019-02-08T09:53:07.266Z,20.63
2019-02-08T09:56:40.712Z,20.63
2019-02-08T10:00:05.446Z,20.57
2019-02-08T10:03:51.675Z,20.69
2019-02-08T10:06:47.159Z,20.61
2019-02-08T10:09:55.603Z,20.61
2019-02-08T10:13:08.938Z,20.64
2019-02-08T10:16:36.191Z,20.64
2019-02-08T10:19:49.443Z,20.51
2019-02-08T10:23:00.297Z,20.57
2019-02-08T10:26:33.298Z,20.56
2019-02-08T10:29:56.342Z,20.56
2019-02-08T10:32:54.043Z,20.53
2019-02-08T10:36:13.661Z,20.51
2019-02-08T10:39:27.840Z,20.49
2019-02-08T10:42:53.754Z,20.54
2019-02-08T10:46:26.507Z,20.55
2019-02-08T10:49:40.601Z,20.55
2019-02-08T10:52:49.140Z,20.54
2019-02-08T10:56:14.830Z,20.61
2019-02-08T10:59:52.132Z,20.55
2019-02-08T11:03:18.973Z,20.57
2019-02-08T11:06:40.087Z,20.57
2019-02-08T11:09:46.536Z,20.61
2019-02-08T11:13:09.393Z,20.55
2019-02-08T11:16:18.333Z,20.56
2019-02-08T11:19:18.074Z,20.32
2019-02-08T11:21:51.318Z,20.23
2019-02-08T11:24:24.735Z,20.23
2019-02-08T11:27:00.699Z,20.37
2019-02-08T11:29:32.472Z,20.37
2019-02-08T11:32:05.223Z,20.26
2019-02-08T11:34:36.880Z,20.26
2019-02-08T11:37:08.719Z,20.25
2019-02-08T11:39:40.710Z,20.20
2019-02-08T11:42:12.573Z,20.29
2019-02-08T11:44:44.602Z,20.11
2019-02-08T11:47:17.723Z,20.20
2019-02-08T11:49:49.614Z,20.11
2019-02-08T11:52:21.322Z,20.11
2019-02-08T11:54:53.186Z,20.11
2019-02-08T11:57:26.013Z,20.07
2019-02-08T11:59:58.089Z,20.09
2019-02-08T12:02:29.613Z,20.09
2019-02-08T12:05:01.201Z,20.05
2019-02-08T12:07:33.485Z,20.05
2019-02-08T12:10:07.415Z,20.05
2019-02-08T12:12:40.680Z,19.82
2019-02-08T12:15:13.566Z,19.97
2019-02-08T12:17:44.839Z,19.97
2019-02-08T12:20:16.475Z,20.05
2019-02-08T12:22:48.064Z,19.83
2019-02-08T12:25:20.807Z,19.83
2019-02-08T12:27:52.398Z,19.80
2019-02-08T12:30:28.983Z,19.78
2019-02-08T12:33:00.074Z,19.73
2019-02-08T12:35:33.530Z,19.80
2019-02-08T12:38:05.588Z,19.80
2019-02-08T12:40:40.277Z,19.66
2019-02-08T12:43:11.558Z,19.75
2019-02-08T12:45:43.135Z,19.76
2019-02-08T12:48:14.544Z,19.62
2019-02-08T12:50:46.357Z,19.62
2019-02-08T12:53:19.417Z,18.84
2019-02-08T12:55:51.349Z,18.78
2019-02-08T12:58:23.129Z,18.78
2019-02-08T13:00:55.027Z,18.76
2019-02-08T13:03:26.988Z,18.76
2019-02-08T13:05:58.763Z,18.67
2019-02-08T13:08:31.123Z,18.67
2019-02-08T13:11:02.978Z,18.52
2019-02-08T13:13:34.408Z,18.52
2019-02-08T13:16:06.132Z,18.52
2019-02-08T13:18:37.496Z,18.46
2019-02-08T13:21:08.733Z,18.51
2019-02-08T13:23:40.284Z,18.51
2019-02-08T13:26:11.817Z,18.46
2019-02-08T13:28:43.217Z,18.48
2019-02-08T13:31:14.683Z,18.35
2019-02-08T13:33:46.246Z,18.34
2019-02-08T13:36:17.821Z,18.36
2019-02-08T13:38:49.947Z,18.36
2019-02-08T13:41:21.816Z,18.31
2019-02-08T13:43:53.256Z,18.27
2019-02-08T13:46:24.579Z,18.30
2019-02-08T13:48:56.576Z,18.30
2019-02-08T13:51:28.154Z,18.20
2019-02-08T13:54:00.005Z,18.20
2019-02-08T13:56:31.699Z,18.16
2019-02-08T13:59:02.979Z,18.14
2019-02-08T14:01:34.187Z,18.22
2019-02-08T14:04:05.835Z,18.13
2019-02-08T14:06:36.821Z,18.04
2019-02-08T14:09:11.237Z,18.04
2019-02-08T14:11:43.052Z,17.97
2019-02-08T14:14:14.714Z,17.88
2019-02-08T14:16:45.941Z,17.88
2019-02-08T14:19:17.673Z,17.91
2019-02-08T14:21:49.014Z,17.91
2019-02-08T14:24:20.542Z,17.86
2019-02-08T14:26:52.090Z,17.77
2019-02-08T14:29:23.940Z,17.67
2019-02-08T14:31:55.244Z,17.67
2019-02-08T14:34:26.871Z,17.52
2019-02-08T14:36:58.729Z,17.52
2019-02-08T14:39:30.161Z,17.54
2019-02-08T14:42:01.794Z,17.54
2019-02-08T14:44:34.297Z,17.34
2019-02-08T14:47:05.739Z,17.34
2019-02-08T14:49:37.347Z,17.23
2019-02-08T14:52:08.897Z,17.23
2019-02-08T14:54:40.444Z,17.18
2019-02-08T14:57:16.836Z,17.19
2019-02-08T14:59:45.989Z,17.19
2019-02-08T15:02:17.570Z,17.18
2019-02-08T15:04:49.290Z,17.18
2019-02-08T15:07:21.305Z,17.18
2019-02-08T15:09:52.704Z,17.21
2019-02-08T15:12:24.497Z,17.21
2019-02-08T15:14:55.961Z,17.12
2019-02-08T15:17:27.746Z,17.13
2019-02-08T15:19:59.270Z,16.99
2019-02-08T15:22:31.060Z,17.20
2019-02-08T15:25:02.900Z,17.17
2019-02-08T15:27:34.227Z,17.17
2019-02-08T15:30:08.259Z,17.08
2019-02-08T15:32:40.171Z,17.08
2019-02-08T15:35:12.084Z,17.04
2019-02-08T15:37:43.725Z,16.90
2019-02-08T15:40:18.874Z,16.90
2019-02-08T15:42:50.494Z,16.87
2019-02-08T15:45:22.605Z,16.86
2019-02-08T15:47:54.062Z,16.70
2019-02-08T15:50:26.480Z,16.70
2019-02-08T15:52:58.151Z,16.70
2019-02-08T15:55:31.811Z,16.71
2019-02-08T15:58:03.567Z,16.71
2019-02-08T16:00:35.538Z,16.65
2019-02-08T16:03:10.020Z,16.62
2019-02-08T16:05:41.604Z,16.47
2019-02-08T16:08:13.556Z,16.47
2019-02-08T16:10:45.131Z,16.55
2019-02-08T16:13:16.715Z,16.43
2019-02-08T16:15:48.346Z,16.35
2019-02-08T16:18:20.822Z,16.39
2019-02-08T16:20:52.424Z,16.18
2019-02-08T16:23:23.822Z,16.22
2019-02-08T16:25:55.350Z,16.39
2019-02-08T16:28:26.651Z,16.42
2019-02-08T16:30:58.346Z,16.30
2019-02-08T16:33:29.584Z,16.30
2019-02-08T16:36:01.044Z,16.18
2019-02-08T16:38:32.378Z,16.18
2019-02-08T16:41:04.385Z,16.09
2019-02-08T16:43:35.936Z,16.09
2019-02-08T16:46:07.890Z,16.18
2019-02-08T16:48:39.492Z,16.06
2019-02-08T16:51:11.101Z,16.06
2019-02-08T16:53:42.400Z,16.07
2019-02-08T16:56:13.926Z,15.98
2019-02-08T16:58:45.105Z,16.10
2019-02-08T17:01:16.632Z,16.02
2019-02-08T17:03:47.777Z,16.02
2019-02-08T17:06:19.701Z,16.11
2019-02-08T17:08:51.357Z,16.11
2019-02-08T17:11:23.005Z,16.02
2019-02-08T17:13:54.211Z,15.99
2019-02-08T17:16:25.821Z,15.88
2019-02-08T17:18:57.023Z,15.78
2019-02-08T17:21:29.543Z,15.74
2019-02-08T17:24:02.105Z,15.80
2019-02-08T17:26:33.616Z,15.66
2019-02-08T17:29:05.305Z,15.66
2019-02-08T17:31:36.712Z,15.83
2019-02-08T17:34:08.055Z,15.83
2019-02-08T17:36:41.319Z,15.71
2019-02-08T17:39:12.876Z,15.61
2019-02-08T17:41:44.489Z,15.45
2019-02-08T17:44:16.094Z,15.45
2019-02-08T17:46:47.284Z,15.65
2019-02-08T17:49:18.652Z,15.65
2019-02-08T17:51:50.061Z,15.76
2019-02-08T17:54:25.740Z,15.76
2019-02-08T17:56:54.540Z,15.49
2019-02-08T17:59:26.298Z,15.50
2019-02-08T18:01:57.873Z,15.50
2019-02-08T18:04:29.296Z,15.42
2019-02-08T18:07:00.513Z,15.41
2019-02-08T18:09:31.992Z,15.41
2019-02-08T18:12:03.667Z,15.27
2019-02-08T18:14:35.263Z,15.27
2019-02-08T18:17:06.608Z,15.27
2019-02-08T18:19:38.319Z,15.32
2019-02-08T18:22:09.625Z,15.22
2019-02-08T18:24:41.210Z,15.22
2019-02-08T18:27:12.756Z,15.24
2019-02-08T18:29:44.392Z,15.08
2019-02-08T18:32:16.363Z,15.05
2019-02-08T18:34:47.973Z,15.05
2019-02-08T18:37:19.710Z,15.02
2019-02-08T18:39:51.388Z,15.14
2019-02-08T18:42:23.344Z,15.15
2019-02-08T18:44:54.628Z,15.04
2019-02-08T18:47:26.294Z,15.04
2019-02-08T18:49:57.699Z,15.06
2019-02-08T18:52:29.065Z,15.10
2019-02-08T18:55:00.397Z,14.95
2019-02-08T18:57:31.791Z,14.95
2019-02-08T19:00:03.294Z,14.93
2019-02-08T19:02:36.947Z,14.93
2019-02-08T19:05:09.048Z,14.96
2019-02-08T19:07:40.644Z,14.59
2019-02-08T19:10:14.278Z,14.67
2019-02-08T19:12:45.951Z,14.67
2019-02-08T19:15:19.057Z,14.60
2019-02-08T19:17:51.407Z,14.81
2019-02-08T19:20:24.126Z,14.81
2019-02-08T19:22:56.048Z,14.61
2019-02-08T19:25:32.201Z,14.68
2019-02-08T19:28:04.085Z,14.82
2019-02-08T19:30:37.326Z,14.82
2019-02-08T19:33:09.684Z,14.42
2019-02-08T19:35:41.395Z,14.42
2019-02-08T19:38:12.972Z,14.47
2019-02-08T19:40:45.993Z,14.67
2019-02-08T19:43:17.696Z,14.67
2019-02-08T19:45:49.237Z,14.67
2019-02-08T19:48:20.899Z,14.61
2019-02-08T19:50:52.501Z,14.51
2019-02-08T19:53:23.819Z,14.51
2019-02-08T19:55:55.428Z,14.54
2019-02-08T19:58:34.111Z,14.60
2019-02-08T20:01:00.239Z,14.60
2019-02-08T20:03:31.993Z,14.44
2019-02-08T20:06:03.518Z,14.47
2019-02-08T20:08:35.168Z,14.34
2019-02-08T20:11:06.410Z,14.53
2019-02-08T20:13:37.767Z,14.45
2019-02-08T20:16:09.181Z,14.29
2019-02-08T20:18:40.687Z,14.33
2019-02-08T20:21:13.245Z,14.40
2019-02-08T20:23:44.859Z,14.25
2019-02-08T20:26:16.253Z,14.19
2019-02-08T20:28:47.903Z,14.19
2019-02-08T20:31:20.732Z,14.22
2019-02-08T20:33:52.230Z,14.22
2019-02-08T20:36:25.545Z,14.16
2019-02-08T20:38:57.011Z,14.04
2019-02-08T20:41:29.475Z,14.03
2019-02-08T20:44:00.976Z,14.02
2019-02-08T20:46:32.490Z,13.90
2019-02-08T20:49:03.819Z,13.97
2019-02-08T20:51:35.357Z,13.97
2019-02-08T20:54:06.982Z,13.79
2019-02-08T20:56:38.539Z,13.90
2019-02-08T20:59:10.212Z,13.90
2019-02-08T21:01:41.540Z,13.91
2019-02-08T21:04:13.029Z,13.90
2019-02-08T21:06:44.457Z,13.90
2019-02-08T21:09:16.374Z,13.83
2019-02-08T21:11:47.744Z,13.83
2019-02-08T21:14:18.942Z,13.97
2019-02-08T21:16:50.476Z,14.10
2019-02-08T21:19:22.132Z,14.10
2019-02-08T21:21:53.505Z,13.93
2019-02-08T21:24:24.894Z,13.77
2019-02-08T21:26:56.285Z,14.01
2019-02-08T21:29:27.918Z,14.03
2019-02-08T21:31:59.396Z,14.03
2019-02-08T21:34:31.232Z,13.87
2019-02-08T21:37:02.935Z,13.99
2019-02-08T21:39:34.157Z,13.81
2019-02-08T21:42:05.860Z,13.87
2019-02-08T21:44:37.377Z,14.03
2019-02-08T21:47:08.950Z,13.82
2019-02-08T21:49:40.225Z,13.82
2019-02-08T21:52:12.391Z,13.83
2019-02-08T21:54:43.752Z,13.92
2019-02-08T21:57:15.580Z,13.92
2019-02-08T21:59:47.074Z,13.67
2019-02-08T22:02:18.489Z,13.67
2019-02-08T22:04:49.802Z,13.82
2019-02-08T22:07:21.823Z,13.73
2019-02-08T22:09:53.158Z,13.81
2019-02-08T22:12:24.629Z,13.57
2019-02-08T22:14:56.199Z,13.52
2019-02-08T22:17:28.040Z,13.52
2019-02-08T22:19:59.396Z,13.54
2019-02-08T22:22:31.054Z,13.55
2019-02-08T22:25:02.619Z,13.54
2019-02-08T22:27:34.158Z,13.53
2019-02-08T22:30:07.915Z,13.57
2019-02-08T22:32:39.356Z,13.49
2019-02-08T22:35:11.950Z,13.49
2019-02-08T22:37:43.498Z,13.50
2019-02-08T22:40:17.512Z,13.32
2019-02-08T22:42:49.773Z,13.17
2019-02-08T22:45:26.595Z,13.46
2019-02-08T22:47:58.554Z,13.31
2019-02-08T22:50:30.634Z,13.31
2019-02-08T22:53:02.227Z,13.35
2019-02-08T22:55:34.239Z,13.35
2019-02-08T22:58:05.937Z,13.17
2019-02-08T23:01:24.847Z,13.17
2019-02-08T23:03:57.442Z,13.15
2019-02-08T23:06:29.295Z,13.29
2019-02-08T23:09:00.666Z,13.38
2019-02-08T23:11:34.205Z,13.38
2019-02-08T23:14:05.915Z,13.18
2019-02-08T23:16:37.573Z,13.27
2019-02-08T23:19:08.927Z,13.27
2019-02-08T23:21:40.584Z,13.16
2019-02-08T23:24:11.732Z,13.23
2019-02-08T23:26:43.206Z,13.13
2019-02-08T23:29:14.641Z,13.23
2019-02-08T23:31:46.472Z,13.07
2019-02-08T23:34:18.017Z,13.15
2019-02-08T23:36:49.609Z,12.95
2019-02-08T23:39:22.160Z,12.95
2019-02-08T23:41:53.753Z,13.02
2019-02-08T23:44:25.344Z,13.10
2019-02-08T23:46:57.055Z,13.08
2019-02-08T23:49:29.219Z,13.09
2019-02-08T23:52:01.360Z,13.09
2019-02-08T23:54:32.885Z,13.06
2019-02-08T23:57:04.194Z,13.06
2019-02-08T23:59:38.174Z,13.05
